sensor_id;sensor_type;location;lat;lon;timestamp;pressure;altitude;pressure_sealevel;temperature;humidity
19590;BME280;12231;42.782;23.388;2023-03-14T00:00:12;95877.16;;;1.81;97.36
19590;BME280;12231;42.782;23.388;2023-03-14T00:02:38;95864.22;;;1.53;99.17
19590;BME280;12231;42.782;23.388;2023-03-14T00:05:04;95858.06;;;1.63;99.07
19590;BME280;12231;42.782;23.388;2023-03-14T00:07:40;95854.72;;;1.63;98.75
19590;BME280;12231;42.782;23.388;2023-03-14T00:10:09;95853.94;;;1.59;98.75
19590;BME280;12231;42.782;23.388;2023-03-14T00:12:36;95848.03;;;1.59;98.45
19590;BME280;12231;42.782;23.388;2023-03-14T00:15:01;95841.50;;;1.47;98.80
19590;BME280;12231;42.782;23.388;2023-03-14T00:17:29;95845.69;;;1.48;99.03
19590;BME280;12231;42.782;23.388;2023-03-14T00:19:54;95837.53;;;1.34;99.02
19590;BME280;12231;42.782;23.388;2023-03-14T00:22:20;95837.81;;;1.20;98.46
19590;BME280;12231;42.782;23.388;2023-03-14T00:24:46;95837.97;;;1.13;98.61
19590;BME280;12231;42.782;23.388;2023-03-14T00:27:12;95829.22;;;1.27;96.84
19590;BME280;12231;42.782;23.388;2023-03-14T00:29:38;95821.44;;;1.36;95.36
19590;BME280;12231;42.782;23.388;2023-03-14T00:32:03;95823.94;;;1.38;95.31
19590;BME280;12231;42.782;23.388;2023-03-14T00:34:30;95818.78;;;1.41;95.19
19590;BME280;12231;42.782;23.388;2023-03-14T00:36:55;95825.56;;;1.40;95.17
19590;BME280;12231;42.782;23.388;2023-03-14T00:39:21;95820.59;;;1.36;95.49
19590;BME280;12231;42.782;23.388;2023-03-14T00:41:46;95817.22;;;1.34;95.51
19590;BME280;12231;42.782;23.388;2023-03-14T00:44:12;95810.88;;;1.15;97.05
19590;BME280;12231;42.782;23.388;2023-03-14T00:46:38;95809.09;;;1.18;97.41
19590;BME280;12231;42.782;23.388;2023-03-14T00:49:03;95804.25;;;1.06;98.06
19590;BME280;12231;42.782;23.388;2023-03-14T00:51:29;95803.38;;;1.07;98.71
19590;BME280;12231;42.782;23.388;2023-03-14T00:53:54;95802.66;;;1.02;99.19
19590;BME280;12231;42.782;23.388;2023-03-14T00:56:19;95806.00;;;1.04;97.10
19590;BME280;12231;42.782;23.388;2023-03-14T00:58:45;95804.16;;;1.11;97.70
19590;BME280;12231;42.782;23.388;2023-03-14T01:01:18;95803.09;;;1.22;97.52
19590;BME280;12231;42.782;23.388;2023-03-14T01:03:44;95797.06;;;1.28;96.58
19590;BME280;12231;42.782;23.388;2023-03-14T01:06:15;95790.84;;;1.41;95.48
19590;BME280;12231;42.782;23.388;2023-03-14T01:08:42;95793.25;;;1.47;93.97
19590;BME280;12231;42.782;23.388;2023-03-14T01:11:13;95794.88;;;1.51;93.59
19590;BME280;12231;42.782;23.388;2023-03-14T01:13:39;95791.59;;;1.46;93.79
19590;BME280;12231;42.782;23.388;2023-03-14T01:16:08;95775.44;;;1.49;93.59
19590;BME280;12231;42.782;23.388;2023-03-14T01:18:34;95777.31;;;1.40;93.89
19590;BME280;12231;42.782;23.388;2023-03-14T01:21:01;95778.16;;;1.41;94.11
19590;BME280;12231;42.782;23.388;2023-03-14T01:23:27;95775.72;;;1.36;94.53
19590;BME280;12231;42.782;23.388;2023-03-14T01:25:52;95778.31;;;1.33;94.83
19590;BME280;12231;42.782;23.388;2023-03-14T01:28:17;95773.47;;;1.23;95.03
19590;BME280;12231;42.782;23.388;2023-03-14T01:30:43;95773.63;;;1.17;95.89
19590;BME280;12231;42.782;23.388;2023-03-14T01:33:08;95772.78;;;1.16;95.93
19590;BME280;12231;42.782;23.388;2023-03-14T01:35:33;95768.63;;;1.11;96.45
19590;BME280;12231;42.782;23.388;2023-03-14T01:37:59;95768.63;;;1.11;96.74
19590;BME280;12231;42.782;23.388;2023-03-14T01:40:24;95764.59;;;1.04;96.84
19590;BME280;12231;42.782;23.388;2023-03-14T01:42:57;95762.19;;;0.96;97.79
19590;BME280;12231;42.782;23.388;2023-03-14T01:48:27;95763.03;;;0.97;97.85
19590;BME280;12231;42.782;23.388;2023-03-14T01:50:53;95760.63;;;0.91;98.82
19590;BME280;12231;42.782;23.388;2023-03-14T01:53:19;95754.81;;;0.86;99.63
19590;BME280;12231;42.782;23.388;2023-03-14T01:55:48;95753.19;;;0.82;99.51
19590;BME280;12231;42.782;23.388;2023-03-14T01:58:14;95757.44;;;0.81;99.36
19590;BME280;12231;42.782;23.388;2023-03-14T02:00:41;95750.69;;;0.79;99.76
19590;BME280;12231;42.782;23.388;2023-03-14T02:03:11;95750.72;;;0.77;99.88
19590;BME280;12231;42.782;23.388;2023-03-14T02:05:40;95748.28;;;0.73;99.95
19590;BME280;12231;42.782;23.388;2023-03-14T02:08:10;95752.56;;;0.71;100.00
19590;BME280;12231;42.782;23.388;2023-03-14T02:10:41;95748.34;;;0.70;100.00
19590;BME280;12231;42.782;23.388;2023-03-14T02:13:08;95748.88;;;0.85;100.00
19590;BME280;12231;42.782;23.388;2023-03-14T02:15:34;95748.75;;;0.91;100.00
19590;BME280;12231;42.782;23.388;2023-03-14T02:18:01;95743.59;;;0.94;100.00
19590;BME280;12231;42.782;23.388;2023-03-14T02:20:55;95745.25;;;0.97;100.00
19590;BME280;12231;42.782;23.388;2023-03-14T02:23:36;95731.06;;;1.28;100.00
19590;BME280;12231;42.782;23.388;2023-03-14T02:26:28;95739.25;;;1.02;98.14
19590;BME280;12231;42.782;23.388;2023-03-14T02:28:57;95741.50;;;1.14;96.07
19590;BME280;12231;42.782;23.388;2023-03-14T02:31:23;95731.22;;;1.22;94.94
19590;BME280;12231;42.782;23.388;2023-03-14T02:33:49;95737.91;;;1.24;94.49
19590;BME280;12231;42.782;23.388;2023-03-14T02:36:17;95748.13;;;1.21;93.90
19590;BME280;12231;42.782;23.388;2023-03-14T02:38:47;95742.31;;;1.16;93.95
19590;BME280;12231;42.782;23.388;2023-03-14T02:41:16;95746.50;;;1.17;93.15
19590;BME280;12231;42.782;23.388;2023-03-14T02:43:41;95743.16;;;1.17;93.18
19590;BME280;12231;42.782;23.388;2023-03-14T02:46:09;95750.09;;;1.09;93.90
19590;BME280;12231;42.782;23.388;2023-03-14T02:51:16;95752.22;;;0.87;95.11
19590;BME280;12231;42.782;23.388;2023-03-14T02:53:41;95745.69;;;0.76;95.37
19590;BME280;12231;42.782;23.388;2023-03-14T02:56:09;95754.34;;;0.66;96.90
19590;BME280;12231;42.782;23.388;2023-03-14T02:58:34;95749.50;;;0.55;97.53
19590;BME280;12231;42.782;23.388;2023-03-14T03:01:00;95753.06;;;0.45;98.25
19590;BME280;12231;42.782;23.388;2023-03-14T03:03:26;95747.13;;;0.45;98.65
19590;BME280;12231;42.782;23.388;2023-03-14T03:05:54;95754.84;;;0.40;99.02
19590;BME280;12231;42.782;23.388;2023-03-14T03:08:21;95759.06;;;0.40;98.97
19590;BME280;12231;42.782;23.388;2023-03-14T03:10:48;95756.59;;;0.35;99.57
19590;BME280;12231;42.782;23.388;2023-03-14T03:13:13;95755.81;;;0.32;99.92
19590;BME280;12231;42.782;23.388;2023-03-14T03:15:39;95750.72;;;0.33;100.00
19590;BME280;12231;42.782;23.388;2023-03-14T03:18:06;95759.16;;;0.35;100.00
19590;BME280;12231;42.782;23.388;2023-03-14T03:20:31;95758.31;;;0.35;100.00
19590;BME280;12231;42.782;23.388;2023-03-14T03:22:58;95753.25;;;0.33;100.00
19590;BME280;12231;42.782;23.388;2023-03-14T03:25:23;95748.19;;;0.33;100.00
19590;BME280;12231;42.782;23.388;2023-03-14T03:27:49;95739.03;;;0.28;100.00
19590;BME280;12231;42.782;23.388;2023-03-14T03:30:15;95746.66;;;0.25;100.00
19590;BME280;12231;42.782;23.388;2023-03-14T03:32:40;95744.94;;;0.27;100.00
19590;BME280;12231;42.782;23.388;2023-03-14T03:35:08;95744.09;;;0.26;100.00
19590;BME280;12231;42.782;23.388;2023-03-14T03:37:34;95745.16;;;0.15;100.00
19590;BME280;12231;42.782;23.388;2023-03-14T03:40:01;95743.47;;;0.14;100.00
19590;BME280;12231;42.782;23.388;2023-03-14T03:42:29;95742.63;;;0.13;100.00
19590;BME280;12231;42.782;23.388;2023-03-14T03:44:54;95743.44;;;0.15;100.00
19590;BME280;12231;42.782;23.388;2023-03-14T03:47:20;95743.41;;;0.17;100.00
19590;BME280;12231;42.782;23.388;2023-03-14T03:49:45;95751.00;;;0.18;100.00
19590;BME280;12231;42.782;23.388;2023-03-14T03:52:10;95751.09;;;0.12;100.00
19590;BME280;12231;42.782;23.388;2023-03-14T03:54:36;95752.78;;;0.12;100.00
19590;BME280;12231;42.782;23.388;2023-03-14T03:57:01;95759.53;;;0.14;100.00
19590;BME280;12231;42.782;23.388;2023-03-14T03:59:27;95754.50;;;0.11;100.00
19590;BME280;12231;42.782;23.388;2023-03-14T04:01:52;95755.38;;;0.09;100.00
19590;BME280;12231;42.782;23.388;2023-03-14T04:04:17;95763.09;;;0.03;100.00
19590;BME280;12231;42.782;23.388;2023-03-14T04:06:43;95753.84;;;-0.02;100.00
19590;BME280;12231;42.782;23.388;2023-03-14T04:09:09;95751.34;;;-0.03;100.00
19590;BME280;12231;42.782;23.388;2023-03-14T04:11:35;95743.00;;;-0.07;100.00
19590;BME280;12231;42.782;23.388;2023-03-14T04:14:01;95750.59;;;-0.07;100.00
19590;BME280;12231;42.782;23.388;2023-03-14T04:16:26;95753.13;;;-0.07;100.00
19590;BME280;12231;42.782;23.388;2023-03-14T04:18:52;95746.31;;;-0.05;100.00
19590;BME280;12231;42.782;23.388;2023-03-14T04:21:18;95742.13;;;-0.06;100.00
19590;BME280;12231;42.782;23.388;2023-03-14T04:23:43;95741.38;;;-0.12;100.00
19590;BME280;12231;42.782;23.388;2023-03-14T04:26:09;95740.66;;;-0.19;100.00
19590;BME280;12231;42.782;23.388;2023-03-14T04:28:35;95736.41;;;-0.17;100.00
19590;BME280;12231;42.782;23.388;2023-03-14T04:31:12;95730.41;;;-0.13;100.00
19590;BME280;12231;42.782;23.388;2023-03-14T04:33:37;95727.00;;;-0.10;100.00
19590;BME280;12231;42.782;23.388;2023-03-14T04:36:05;95738.19;;;-0.22;100.00
19590;BME280;12231;42.782;23.388;2023-03-14T04:38:31;95735.66;;;-0.22;100.00
19590;BME280;12231;42.782;23.388;2023-03-14T04:40:56;95720.47;;;-0.23;100.00
19590;BME280;12231;42.782;23.388;2023-03-14T04:43:22;95716.41;;;-0.32;100.00
19590;BME280;12231;42.782;23.388;2023-03-14T04:45:47;95713.75;;;-0.26;100.00
19590;BME280;12231;42.782;23.388;2023-03-14T04:48:13;95716.22;;;-0.23;100.00
19590;BME280;12231;42.782;23.388;2023-03-14T04:50:39;95717.03;;;-0.21;100.00
19590;BME280;12231;42.782;23.388;2023-03-14T04:53:05;95714.31;;;-0.09;100.00
19590;BME280;12231;42.782;23.388;2023-03-14T04:55:31;95718.13;;;0.15;100.00
19590;BME280;12231;42.782;23.388;2023-03-14T04:57:58;95712.34;;;0.53;100.00
19590;BME280;12231;42.782;23.388;2023-03-14T05:00:23;95703.09;;;0.91;100.00
19590;BME280;12231;42.782;23.388;2023-03-14T05:02:48;95711.78;;;1.19;100.00
19590;BME280;12231;42.782;23.388;2023-03-14T05:05:14;95712.84;;;1.48;100.00
19590;BME280;12231;42.782;23.388;2023-03-14T05:07:39;95710.88;;;1.60;97.74
19590;BME280;12231;42.782;23.388;2023-03-14T05:10:05;95710.53;;;1.74;95.07
19590;BME280;12231;42.782;23.388;2023-03-14T05:12:30;95707.34;;;1.66;91.73
19590;BME280;12231;42.782;23.388;2023-03-14T05:14:56;95709.81;;;1.69;91.67
19590;BME280;12231;42.782;23.388;2023-03-14T05:17:21;95705.47;;;2.07;92.28
19590;BME280;12231;42.782;23.388;2023-03-14T05:19:47;95705.25;;;2.77;90.79
19590;BME280;12231;42.782;23.388;2023-03-14T05:22:12;95697.00;;;3.55;86.75
19590;BME280;12231;42.782;23.388;2023-03-14T05:24:38;95691.59;;;4.41;81.43
19590;BME280;12231;42.782;23.388;2023-03-14T05:27:04;95692.06;;;5.21;76.76
19590;BME280;12231;42.782;23.388;2023-03-14T05:29:30;95684.13;;;5.94;69.25
19590;BME280;12231;42.782;23.388;2023-03-14T05:31:55;95689.66;;;6.65;63.89
19590;BME280;12231;42.782;23.388;2023-03-14T05:34:20;95673.50;;;7.39;60.65
19590;BME280;12231;42.782;23.388;2023-03-14T05:36:46;95677.53;;;7.80;58.38
19590;BME280;12231;42.782;23.388;2023-03-14T05:39:11;95673.38;;;8.47;56.79
19590;BME280;12231;42.782;23.388;2023-03-14T05:41:37;95675.56;;;9.51;54.80
19590;BME280;12231;42.782;23.388;2023-03-14T05:44:02;95668.81;;;10.40;51.39
19590;BME280;12231;42.782;23.388;2023-03-14T05:46:28;95661.13;;;11.11;48.23
19590;BME280;12231;42.782;23.388;2023-03-14T05:48:58;95662.69;;;11.82;44.96
19590;BME280;12231;42.782;23.388;2023-03-14T05:51:24;95658.00;;;12.53;44.02
19590;BME280;12231;42.782;23.388;2023-03-14T05:53:50;95665.66;;;11.07;45.65
19590;BME280;12231;42.782;23.388;2023-03-14T05:56:15;95666.09;;;10.71;46.49
19590;BME280;12231;42.782;23.388;2023-03-14T05:58:41;95667.75;;;11.00;47.00
19590;BME280;12231;42.782;23.388;2023-03-14T06:01:07;95661.13;;;12.58;42.69
19590;BME280;12231;42.782;23.388;2023-03-14T06:03:33;95648.41;;;13.17;41.42
19590;BME280;12231;42.782;23.388;2023-03-14T06:05:58;95652.81;;;13.53;40.57
19590;BME280;12231;42.782;23.388;2023-03-14T06:08:24;95656.63;;;13.60;41.20
19590;BME280;12231;42.782;23.388;2023-03-14T06:10:50;95652.50;;;13.81;41.60
19590;BME280;12231;42.782;23.388;2023-03-14T06:13:16;95654.88;;;13.60;41.14
19590;BME280;12231;42.782;23.388;2023-03-14T06:15:41;95649.38;;;13.89;39.90
19590;BME280;12231;42.782;23.388;2023-03-14T06:18:07;95653.78;;;14.23;39.64
19590;BME280;12231;42.782;23.388;2023-03-14T06:20:35;95655.72;;;14.55;38.27
19590;BME280;12231;42.782;23.388;2023-03-14T06:23:00;95660.63;;;15.15;38.49
19590;BME280;12231;42.782;23.388;2023-03-14T06:25:26;95654.56;;;15.81;36.59
19590;BME280;12231;42.782;23.388;2023-03-14T06:27:51;95649.72;;;16.30;35.44
19590;BME280;12231;42.782;23.388;2023-03-14T06:30:17;95652.75;;;16.87;34.34
19590;BME280;12231;42.782;23.388;2023-03-14T06:32:42;95665.22;;;15.78;36.16
19590;BME280;12231;42.782;23.388;2023-03-14T06:35:08;95648.72;;;16.94;34.04
19590;BME280;12231;42.782;23.388;2023-03-14T06:37:33;95640.53;;;17.68;32.33
19590;BME280;12231;42.782;23.388;2023-03-14T06:39:59;95638.81;;;17.48;33.19
19590;BME280;12231;42.782;23.388;2023-03-14T06:42:25;95636.69;;;17.63;31.75
19590;BME280;12231;42.782;23.388;2023-03-14T06:44:50;95631.88;;;16.78;32.72
19590;BME280;12231;42.782;23.388;2023-03-14T06:47:15;95635.22;;;17.40;32.93
19590;BME280;12231;42.782;23.388;2023-03-14T06:49:41;95632.78;;;17.18;33.41
19590;BME280;12231;42.782;23.388;2023-03-14T06:52:06;95628.78;;;17.14;31.95
19590;BME280;12231;42.782;23.388;2023-03-14T06:54:32;95630.78;;;17.01;33.03
19590;BME280;12231;42.782;23.388;2023-03-14T06:56:57;95616.16;;;17.89;32.63
19590;BME280;12231;42.782;23.388;2023-03-14T06:59:23;95620.03;;;18.61;31.46
19590;BME280;12231;42.782;23.388;2023-03-14T07:01:48;95607.78;;;19.36;30.71
19590;BME280;12231;42.782;23.388;2023-03-14T07:04:16;95597.88;;;19.84;30.37
19590;BME280;12231;42.782;23.388;2023-03-14T07:06:41;95602.72;;;18.69;30.24
19590;BME280;12231;42.782;23.388;2023-03-14T07:09:10;95613.34;;;18.58;31.57
19590;BME280;12231;42.782;23.388;2023-03-14T07:11:36;95610.53;;;16.84;32.62
19590;BME280;12231;42.782;23.388;2023-03-14T07:14:02;95611.59;;;17.02;33.08
19590;BME280;12231;42.782;23.388;2023-03-14T07:16:27;95606.34;;;17.62;33.38
19590;BME280;12231;42.782;23.388;2023-03-14T07:18:56;95611.09;;;17.87;31.97
19590;BME280;12231;42.782;23.388;2023-03-14T07:21:22;95600.53;;;18.74;31.20
19590;BME280;12231;42.782;23.388;2023-03-14T07:23:48;95605.75;;;18.46;29.32
19590;BME280;12231;42.782;23.388;2023-03-14T07:26:13;95609.56;;;18.04;29.98
19590;BME280;12231;42.782;23.388;2023-03-14T07:28:38;95604.50;;;16.83;31.20
19590;BME280;12231;42.782;23.388;2023-03-14T07:31:04;95597.16;;;17.28;32.16
19590;BME280;12231;42.782;23.388;2023-03-14T07:33:30;95594.75;;;17.95;32.04
19590;BME280;12231;42.782;23.388;2023-03-14T07:35:55;95591.16;;;17.86;30.75
19590;BME280;12231;42.782;23.388;2023-03-14T07:38:20;95583.44;;;18.89;29.87
19590;BME280;12231;42.782;23.388;2023-03-14T07:40:46;95584.31;;;18.71;30.31
19590;BME280;12231;42.782;23.388;2023-03-14T07:43:11;95592.00;;;17.96;30.64
19590;BME280;12231;42.782;23.388;2023-03-14T07:45:37;95589.47;;;17.56;31.61
19590;BME280;12231;42.782;23.388;2023-03-14T07:48:02;95576.22;;;19.10;31.22
19590;BME280;12231;42.782;23.388;2023-03-14T07:50:28;95584.03;;;17.98;32.02
19590;BME280;12231;42.782;23.388;2023-03-14T07:52:54;95575.09;;;19.13;29.70
19590;BME280;12231;42.782;23.388;2023-03-14T07:55:20;95573.88;;;19.71;29.61
19590;BME280;12231;42.782;23.388;2023-03-14T07:57:45;95565.78;;;20.27;29.72
19590;BME280;12231;42.782;23.388;2023-03-14T08:00:11;95562.44;;;21.79;27.92
19590;BME280;12231;42.782;23.388;2023-03-14T08:02:36;95561.06;;;22.48;26.48
19590;BME280;12231;42.782;23.388;2023-03-14T08:05:03;95564.50;;;19.14;30.86
19590;BME280;12231;42.782;23.388;2023-03-14T08:07:29;95572.53;;;18.00;32.63
19590;BME280;12231;42.782;23.388;2023-03-14T08:09:54;95568.78;;;19.06;30.19
19590;BME280;12231;42.782;23.388;2023-03-14T08:12:20;95561.34;;;19.11;29.71
19590;BME280;12231;42.782;23.388;2023-03-14T08:14:45;95575.13;;;18.10;30.56
19590;BME280;12231;42.782;23.388;2023-03-14T08:17:11;95575.00;;;17.92;31.04
19590;BME280;12231;42.782;23.388;2023-03-14T08:19:36;95556.00;;;19.67;28.87
19590;BME280;12231;42.782;23.388;2023-03-14T08:22:02;95553.69;;;19.00;28.67
19590;BME280;12231;42.782;23.388;2023-03-14T08:24:28;95553.75;;;20.34;27.82
19590;BME280;12231;42.782;23.388;2023-03-14T08:26:53;95553.00;;;21.18;28.04
19590;BME280;12231;42.782;23.388;2023-03-14T08:29:19;95550.19;;;21.87;26.42
19590;BME280;12231;42.782;23.388;2023-03-14T08:31:44;95552.06;;;19.26;27.46
19590;BME280;12231;42.782;23.388;2023-03-14T08:34:09;95541.91;;;21.74;26.63
19590;BME280;12231;42.782;23.388;2023-03-14T08:36:35;95530.81;;;22.04;25.94
19590;BME280;12231;42.782;23.388;2023-03-14T08:39:00;95536.66;;;21.32;26.34
19590;BME280;12231;42.782;23.388;2023-03-14T08:41:26;95527.41;;;20.35;26.96
19590;BME280;12231;42.782;23.388;2023-03-14T08:43:51;95529.94;;;20.10;27.83
19590;BME280;12231;42.782;23.388;2023-03-14T08:46:17;95524.38;;;21.83;26.05
19590;BME280;12231;42.782;23.388;2023-03-14T08:48:42;95511.97;;;22.65;24.57
19590;BME280;12231;42.782;23.388;2023-03-14T08:51:10;95507.03;;;22.70;24.45
19590;BME280;12231;42.782;23.388;2023-03-14T08:53:36;95497.69;;;22.59;25.33
19590;BME280;12231;42.782;23.388;2023-03-14T08:56:02;95506.97;;;21.73;25.98
19590;BME280;12231;42.782;23.388;2023-03-14T08:58:29;95494.88;;;22.45;25.20
19590;BME280;12231;42.782;23.388;2023-03-14T09:00:54;95485.72;;;23.12;24.48
19590;BME280;12231;42.782;23.388;2023-03-14T09:03:20;95492.16;;;21.56;25.77
19590;BME280;12231;42.782;23.388;2023-03-14T09:05:48;95475.44;;;22.94;25.94
19590;BME280;12231;42.782;23.388;2023-03-14T09:08:13;95474.50;;;22.71;24.14
19590;BME280;12231;42.782;23.388;2023-03-14T09:10:39;95499.91;;;17.76;29.24
19590;BME280;12231;42.782;23.388;2023-03-14T09:13:04;95485.81;;;18.35;30.30
19590;BME280;12231;42.782;23.388;2023-03-14T09:15:30;95469.63;;;19.76;27.86
19590;BME280;12231;42.782;23.388;2023-03-14T09:17:55;95471.00;;;19.08;28.38
19590;BME280;12231;42.782;23.388;2023-03-14T09:20:20;95461.06;;;18.85;29.01
19590;BME280;12231;42.782;23.388;2023-03-14T09:22:46;95462.91;;;18.29;28.70
19590;BME280;12231;42.782;23.388;2023-03-14T09:25:11;95457.63;;;18.57;29.38
19590;BME280;12231;42.782;23.388;2023-03-14T09:27:37;95444.00;;;18.90;29.62
19590;BME280;12231;42.782;23.388;2023-03-14T09:30:03;95443.50;;;18.50;29.26
19590;BME280;12231;42.782;23.388;2023-03-14T09:32:29;95441.75;;;18.32;29.18
19590;BME280;12231;42.782;23.388;2023-03-14T09:34:56;95441.50;;;18.25;29.51
19590;BME280;12231;42.782;23.388;2023-03-14T09:37:22;95430.75;;;18.28;29.48
19590;BME280;12231;42.782;23.388;2023-03-14T09:39:47;95434.69;;;17.96;29.52
19590;BME280;12231;42.782;23.388;2023-03-14T09:42:15;95423.63;;;18.76;30.07
19590;BME280;12231;42.782;23.388;2023-03-14T09:44:53;95415.25;;;18.73;30.05
19590;BME280;12231;42.782;23.388;2023-03-14T09:47:19;95413.69;;;18.53;30.22
19590;BME280;12231;42.782;23.388;2023-03-14T09:49:45;95411.41;;;18.31;29.61
19590;BME280;12231;42.782;23.388;2023-03-14T09:52:24;95395.75;;;18.40;29.22
19590;BME280;12231;42.782;23.388;2023-03-14T09:54:56;95401.91;;;17.64;31.80
19590;BME280;12231;42.782;23.388;2023-03-14T09:57:24;95399.56;;;17.71;30.90
19590;BME280;12231;42.782;23.388;2023-03-14T09:59:52;95384.09;;;18.62;29.41
19590;BME280;12231;42.782;23.388;2023-03-14T10:02:25;95382.31;;;17.70;31.08
19590;BME280;12231;42.782;23.388;2023-03-14T10:04:52;95375.44;;;17.69;31.80
19590;BME280;12231;42.782;23.388;2023-03-14T10:07:32;95372.63;;;17.99;30.73
19590;BME280;12231;42.782;23.388;2023-03-14T10:09:58;95359.28;;;17.56;29.74
19590;BME280;12231;42.782;23.388;2023-03-14T10:12:31;95361.44;;;17.70;30.59
19590;BME280;12231;42.782;23.388;2023-03-14T10:15:02;95357.31;;;17.39;31.09
19590;BME280;12231;42.782;23.388;2023-03-14T10:17:28;95353.06;;;17.09;32.51
19590;BME280;12231;42.782;23.388;2023-03-14T10:19:57;95362.63;;;16.71;32.79
19590;BME280;12231;42.782;23.388;2023-03-14T10:22:26;95349.53;;;17.01;32.23
19590;BME280;12231;42.782;23.388;2023-03-14T10:25:03;95346.44;;;16.58;34.15
19590;BME280;12231;42.782;23.388;2023-03-14T10:27:35;95331.44;;;16.99;32.83
19590;BME280;12231;42.782;23.388;2023-03-14T10:30:06;95324.81;;;17.71;31.99
19590;BME280;12231;42.782;23.388;2023-03-14T10:32:39;95326.31;;;16.69;32.47
19590;BME280;12231;42.782;23.388;2023-03-14T10:37:50;95312.84;;;16.45;33.72
19590;BME280;12231;42.782;23.388;2023-03-14T10:40:18;95298.38;;;16.81;33.60
19590;BME280;12231;42.782;23.388;2023-03-14T10:42:44;95283.38;;;17.68;32.35
19590;BME280;12231;42.782;23.388;2023-03-14T10:45:36;95283.56;;;17.48;33.96
19590;BME280;12231;42.782;23.388;2023-03-14T10:53:17;95261.19;;;17.55;33.53
19590;BME280;12231;42.782;23.388;2023-03-14T10:55:45;95251.06;;;17.33;33.31
19590;BME280;12231;42.782;23.388;2023-03-14T10:58:41;95245.34;;;17.20;33.17
19590;BME280;12231;42.782;23.388;2023-03-14T11:01:44;95241.81;;;16.92;33.07
19590;BME280;12231;42.782;23.388;2023-03-14T11:09:56;95211.19;;;18.50;33.01
19590;BME280;12231;42.782;23.388;2023-03-14T11:13:03;95212.50;;;18.10;31.76
19590;BME280;12231;42.782;23.388;2023-03-14T11:29:25;95169.66;;;17.21;32.75
19590;BME280;12231;42.782;23.388;2023-03-14T11:31:55;95151.09;;;17.70;31.68
19590;BME280;12231;42.782;23.388;2023-03-14T11:34:52;95142.25;;;18.61;32.43
19590;BME280;12231;42.782;23.388;2023-03-14T11:37:34;95138.91;;;19.45;31.90
19590;BME280;12231;42.782;23.388;2023-03-14T11:40:06;95130.53;;;19.67;30.46
19590;BME280;12231;42.782;23.388;2023-03-14T11:42:34;95122.47;;;19.53;29.96
19590;BME280;12231;42.782;23.388;2023-03-14T11:45:00;95130.91;;;19.47;29.99
19590;BME280;12231;42.782;23.388;2023-03-14T11:47:32;95117.72;;;19.56;30.69
19590;BME280;12231;42.782;23.388;2023-03-14T11:50:16;95118.00;;;18.51;30.33
19590;BME280;12231;42.782;23.388;2023-03-14T11:55:20;95096.44;;;18.92;31.65
19590;BME280;12231;42.782;23.388;2023-03-14T11:57:51;95092.97;;;18.83;29.69
19590;BME280;12231;42.782;23.388;2023-03-14T12:00:21;95098.41;;;18.29;31.50
19590;BME280;12231;42.782;23.388;2023-03-14T12:10:24;95068.16;;;17.56;31.76
19590;BME280;12231;42.782;23.388;2023-03-14T12:12:49;95059.78;;;18.15;31.58
19590;BME280;12231;42.782;23.388;2023-03-14T12:15:20;95051.06;;;18.24;31.55
19590;BME280;12231;42.782;23.388;2023-03-14T12:17:46;95041.09;;;18.20;32.03
19590;BME280;12231;42.782;23.388;2023-03-14T12:20:19;95039.00;;;18.66;31.19
19590;BME280;12231;42.782;23.388;2023-03-14T12:22:46;95033.00;;;18.74;30.88
19590;BME280;12231;42.782;23.388;2023-03-14T12:25:21;95040.06;;;18.38;31.13
19590;BME280;12231;42.782;23.388;2023-03-14T12:28:16;95029.72;;;18.29;30.76
19590;BME280;12231;42.782;23.388;2023-03-14T12:30:43;95025.44;;;18.20;30.11
19590;BME280;12231;42.782;23.388;2023-03-14T12:35:42;95023.44;;;17.96;32.34
19590;BME280;12231;42.782;23.388;2023-03-14T12:38:25;95015.75;;;17.95;30.39
19590;BME280;12231;42.782;23.388;2023-03-14T12:43:29;95009.03;;;18.10;30.27
19590;BME280;12231;42.782;23.388;2023-03-14T12:48:45;95000.00;;;18.65;31.36
19590;BME280;12231;42.782;23.388;2023-03-14T12:51:29;94989.78;;;18.79;31.34
19590;BME280;12231;42.782;23.388;2023-03-14T12:59:30;94981.94;;;18.28;29.87
19590;BME280;12231;42.782;23.388;2023-03-14T13:02:10;94980.31;;;18.27;30.07
19590;BME280;12231;42.782;23.388;2023-03-14T13:05:04;94963.97;;;18.25;29.32
19590;BME280;12231;42.782;23.388;2023-03-14T13:08:20;94952.38;;;18.20;29.03
19590;BME280;12231;42.782;23.388;2023-03-14T13:10:24;94952.97;;;18.57;30.11
19590;BME280;12231;42.782;23.388;2023-03-14T13:12:54;94962.72;;;18.12;30.69
19590;BME280;12231;42.782;23.388;2023-03-14T13:17:49;94943.13;;;17.82;30.26
19590;BME280;12231;42.782;23.388;2023-03-14T13:20:29;94950.00;;;18.09;30.39
19590;BME280;12231;42.782;23.388;2023-03-14T13:22:56;94937.63;;;18.11;30.17
19590;BME280;12231;42.782;23.388;2023-03-14T13:25:21;94933.56;;;18.08;30.26
19590;BME280;12231;42.782;23.388;2023-03-14T13:27:48;94918.53;;;17.85;30.75
19590;BME280;12231;42.782;23.388;2023-03-14T13:30:15;94918.38;;;18.12;30.28
19590;BME280;12231;42.782;23.388;2023-03-14T13:32:43;94911.13;;;17.98;29.98
19590;BME280;12231;42.782;23.388;2023-03-14T13:35:17;94910.38;;;17.62;30.28
19590;BME280;12231;42.782;23.388;2023-03-14T13:37:43;94910.03;;;18.00;30.42
19590;BME280;12231;42.782;23.388;2023-03-14T13:40:20;94900.91;;;17.78;30.36
19590;BME280;12231;42.782;23.388;2023-03-14T13:42:46;94886.72;;;17.81;30.63
19590;BME280;12231;42.782;23.388;2023-03-14T13:45:13;94890.06;;;17.91;29.56
19590;BME280;12231;42.782;23.388;2023-03-14T13:47:40;94882.09;;;17.93;31.79
19590;BME280;12231;42.782;23.388;2023-03-14T13:50:14;94891.50;;;17.86;29.89
19590;BME280;12231;42.782;23.388;2023-03-14T13:52:40;94879.53;;;17.75;29.97
19590;BME280;12231;42.782;23.388;2023-03-14T13:55:13;94867.16;;;17.77;29.87